createdAt,value
2023-03-15T00:02:26.011Z,100.00
2023-03-15T00:04:55.691Z,100.00
2023-03-15T00:07:26.295Z,100.00
2023-03-15T00:09:55.140Z,100.00
2023-03-15T00:12:25.781Z,100.00
2023-03-15T00:14:54.448Z,100.00
2023-03-15T00:17:23.147Z,100.00
2023-03-15T00:19:51.429Z,100.00
2023-03-15T00:22:19.148Z,100.00
2023-03-15T00:24:47.184Z,100.00
2023-03-15T00:27:15.081Z,100.00
2023-03-15T00:29:43.718Z,100.00
2023-03-15T00:32:11.486Z,100.00
2023-03-15T00:34:40.820Z,100.00
2023-03-15T00:37:08.736Z,100.00
2023-03-15T00:39:38.738Z,100.00
2023-03-15T00:42:09.257Z,100.00
2023-03-15T00:44:37.515Z,100.00
2023-03-15T00:47:05.721Z,100.00
2023-03-15T00:49:34.250Z,100.00
2023-03-15T00:52:02.925Z,100.00
2023-03-15T00:54:33.930Z,100.00
2023-03-15T00:57:02.782Z,100.00
2023-03-15T00:59:35.444Z,100.00
2023-03-15T01:02:04.306Z,100.00
2023-03-15T01:04:32.766Z,100.00
2023-03-15T01:07:00.726Z,100.00
2023-03-15T01:09:31.209Z,100.00
2023-03-15T01:11:59.667Z,100.00
2023-03-15T01:14:28.699Z,100.00
2023-03-15T01:16:56.583Z,100.00
2023-03-15T01:19:25.004Z,100.00
2023-03-15T01:21:53.934Z,100.00
2023-03-15T01:24:22.012Z,100.00
2023-03-15T01:26:51.346Z,100.00
2023-03-15T01:29:19.926Z,100.00
2023-03-15T01:31:47.890Z,100.00
2023-03-15T01:34:16.368Z,100.00
2023-03-15T01:36:44.337Z,100.00
2023-03-15T01:39:12.901Z,100.00
2023-03-15T01:41:46.091Z,100.00
2023-03-15T01:44:15.521Z,100.00
2023-03-15T01:46:44.992Z,100.00
2023-03-15T01:49:32.771Z,100.00
2023-03-15T01:52:03.935Z,100.00
2023-03-15T01:55:08.950Z,100.00
2023-03-15T01:57:45.746Z,100.00
2023-03-15T02:00:20.352Z,100.00
2023-03-15T02:03:05.425Z,100.00
2023-03-15T02:05:36.525Z,100.00
2023-03-15T02:08:07.996Z,100.00
2023-03-15T02:10:44.053Z,100.00
2023-03-15T02:13:16.438Z,100.00
2023-03-15T02:15:47.161Z,100.00
2023-03-15T02:18:22.847Z,100.00
2023-03-15T02:21:00.827Z,100.00
2023-03-15T02:23:29.533Z,100.00
2023-03-15T02:25:58.213Z,100.00
2023-03-15T02:28:28.955Z,100.00
2023-03-15T02:30:57.793Z,100.00
2023-03-15T02:33:31.559Z,100.00
2023-03-15T02:36:12.241Z,100.00
2023-03-15T02:38:39.940Z,100.00
2023-03-15T02:41:08.276Z,100.00
2023-03-15T02:43:36.683Z,100.00
2023-03-15T02:46:05.770Z,100.00
2023-03-15T02:48:35.321Z,100.00
2023-03-15T02:51:04.496Z,100.00
2023-03-15T02:53:32.936Z,100.00
2023-03-15T02:56:00.896Z,100.00
2023-03-15T02:58:29.259Z,100.00
2023-03-15T03:00:58.754Z,100.00
2023-03-15T03:03:27.008Z,100.00
2023-03-15T03:05:55.172Z,100.00
2023-03-15T03:08:23.544Z,100.00
2023-03-15T03:10:53.006Z,100.00
2023-03-15T03:13:20.893Z,100.00
2023-03-15T03:15:58.724Z,100.00
2023-03-15T03:18:32.116Z,100.00
2023-03-15T03:21:00.846Z,100.00
2023-03-15T03:23:29.371Z,100.00
2023-03-15T03:25:59.234Z,100.00
2023-03-15T03:28:29.891Z,100.00
2023-03-15T03:30:59.533Z,100.00
2023-03-15T03:33:28.162Z,100.00
2023-03-15T03:36:02.505Z,100.00
2023-03-15T03:38:30.753Z,100.00
2023-03-15T03:41:01.729Z,100.00
2023-03-15T03:43:32.589Z,100.00
2023-03-15T03:46:01.370Z,100.00
2023-03-15T03:48:29.806Z,100.00
2023-03-15T03:50:58.672Z,100.00
2023-03-15T03:53:26.473Z,100.00
2023-03-15T03:55:57.194Z,100.00
2023-03-15T03:58:25.024Z,100.00
2023-03-15T04:00:59.564Z,100.00
2023-03-15T04:03:31.416Z,100.00
2023-03-15T04:06:06.715Z,100.00
2023-03-15T04:08:38.972Z,100.00
2023-03-15T04:11:08.333Z,100.00
2023-03-15T04:13:39.529Z,100.00
2023-03-15T04:16:08.580Z,100.00
2023-03-15T04:18:51.873Z,100.00
2023-03-15T04:21:23.377Z,100.00
2023-03-15T04:23:55.446Z,100.00
2023-03-15T04:26:46.726Z,100.00
2023-03-15T04:29:42.147Z,100.00
2023-03-15T04:32:26.583Z,100.00
2023-03-15T04:35:12.967Z,100.00
2023-03-15T04:38:01.513Z,100.00
2023-03-15T04:41:01.612Z,100.00
2023-03-15T04:43:47.801Z,100.00
2023-03-15T04:46:34.462Z,100.00
2023-03-15T04:49:20.896Z,100.00
2023-03-15T04:52:00.779Z,100.00
2023-03-15T04:54:42.599Z,100.00
2023-03-15T04:57:21.694Z,100.00
2023-03-15T05:00:23.045Z,100.00
2023-03-15T05:03:23.488Z,100.00
2023-03-15T05:06:08.569Z,100.00
2023-03-15T05:08:48.426Z,100.00
2023-03-15T05:11:35.562Z,100.00
2023-03-15T05:14:16.446Z,100.00
2023-03-15T05:17:17.061Z,100.00
2023-03-15T05:20:08.539Z,100.00
2023-03-15T05:22:56.948Z,100.00
2023-03-15T05:25:42.299Z,100.00
2023-03-15T05:28:25.833Z,100.00
2023-03-15T05:31:25.600Z,100.00
2023-03-15T05:34:24.381Z,100.00
2023-03-15T05:37:02.804Z,100.00
2023-03-15T05:39:36.747Z,100.00
2023-03-15T05:42:30.845Z,100.00
2023-03-15T05:45:08.638Z,100.00
2023-03-15T05:47:59.414Z,100.00
2023-03-15T05:50:40.681Z,100.00
2023-03-15T05:53:27.017Z,100.00
2023-03-15T05:56:13.796Z,100.00
2023-03-15T05:58:47.882Z,100.00
2023-03-15T06:01:36.368Z,100.00
2023-03-15T06:04:12.721Z,100.00
2023-03-15T06:06:41.858Z,100.00
2023-03-15T06:09:11.729Z,100.00
2023-03-15T06:11:40.416Z,100.00
2023-03-15T06:14:12.622Z,100.00
2023-03-15T06:16:59.199Z,100.00
2023-03-15T06:19:30.052Z,100.00
2023-03-15T06:21:58.478Z,100.00
2023-03-15T06:24:36.343Z,100.00
2023-03-15T06:27:05.423Z,100.00
2023-03-15T06:29:35.787Z,100.00
2023-03-15T06:32:05.242Z,100.00
2023-03-15T06:34:36.988Z,100.00
2023-03-15T06:37:05.876Z,100.00
2023-03-15T06:39:34.653Z,100.00
2023-03-15T06:42:04.944Z,100.00
2023-03-15T06:44:37.644Z,100.00
2023-03-15T06:47:09.455Z,100.00
2023-03-15T06:49:38.305Z,100.00
2023-03-15T06:52:07.681Z,100.00
2023-03-15T06:54:35.943Z,100.00
2023-03-15T06:57:04.508Z,100.00
2023-03-15T06:59:32.748Z,100.00
2023-03-15T07:02:01.423Z,100.00
2023-03-15T07:04:29.355Z,100.00
2023-03-15T07:06:57.681Z,100.00
2023-03-15T07:09:25.715Z,100.00
2023-03-15T07:11:53.918Z,100.00
2023-03-15T07:14:22.471Z,100.00
2023-03-15T07:16:50.939Z,100.00
2023-03-15T07:19:18.655Z,100.00
2023-03-15T07:21:47.006Z,100.00
2023-03-15T07:24:15.132Z,100.00
2023-03-15T07:26:43.480Z,100.00
2023-03-15T07:29:11.309Z,100.00
2023-03-15T07:31:39.709Z,100.00
2023-03-15T07:34:07.739Z,100.00
2023-03-15T07:36:36.223Z,100.00
2023-03-15T07:39:05.200Z,100.00
2023-03-15T07:41:33.538Z,100.00
2023-03-15T07:44:16.008Z,100.00
2023-03-15T07:46:44.097Z,100.00
2023-03-15T07:49:11.875Z,100.00
2023-03-15T07:51:39.617Z,100.00
2023-03-15T07:54:07.482Z,100.00
2023-03-15T07:56:35.719Z,100.00
2023-03-15T07:59:03.505Z,100.00
2023-03-15T08:01:32.157Z,100.00
2023-03-15T08:04:00.094Z,100.00
2023-03-15T08:06:28.149Z,100.00
2023-03-15T08:08:55.954Z,100.00
2023-03-15T08:11:24.507Z,100.00
2023-03-15T08:13:52.346Z,100.00
2023-03-15T08:17:17.070Z,100.00
2023-03-15T08:20:03.282Z,100.00
2023-03-15T08:22:31.272Z,100.00
2023-03-15T08:24:59.310Z,100.00
2023-03-15T08:27:27.953Z,100.00
2023-03-15T08:29:55.710Z,100.00
2023-03-15T08:32:24.038Z,99.23
2023-03-15T08:34:53.321Z,98.72
2023-03-15T08:37:21.750Z,98.88
2023-03-15T08:39:49.658Z,97.47
2023-03-15T08:42:18.336Z,98.30
2023-03-15T08:44:46.093Z,99.19
2023-03-15T08:47:14.716Z,98.83
2023-03-15T08:49:42.552Z,99.69
2023-03-15T08:52:11.181Z,99.97
2023-03-15T08:54:39.099Z,100.00
2023-03-15T08:57:07.401Z,100.00
2023-03-15T08:59:35.239Z,100.00
2023-03-15T09:02:04.284Z,100.00
2023-03-15T09:04:34.348Z,100.00
2023-03-15T09:07:02.405Z,100.00
2023-03-15T09:09:30.566Z,100.00
2023-03-15T09:11:58.694Z,97.78
2023-03-15T09:14:26.491Z,98.32
2023-03-15T09:16:54.942Z,99.12
2023-03-15T09:19:22.830Z,100.00
2023-03-15T09:21:51.493Z,97.53
2023-03-15T09:24:19.139Z,98.85
2023-03-15T09:26:47.586Z,96.58
2023-03-15T09:29:15.367Z,97.33
2023-03-15T09:31:43.682Z,95.00
2023-03-15T09:34:11.470Z,97.24
2023-03-15T09:36:39.614Z,98.03
2023-03-15T09:39:08.592Z,98.51
2023-03-15T09:41:46.848Z,96.03
2023-03-15T09:44:54.882Z,95.78
2023-03-15T09:47:39.381Z,95.53
2023-03-15T09:50:30.765Z,94.14
2023-03-15T09:53:01.504Z,93.23
2023-03-15T09:55:30.110Z,95.60
2023-03-15T09:58:04.067Z,94.90
2023-03-15T10:01:06.159Z,97.07
2023-03-15T10:03:50.813Z,93.82
2023-03-15T10:06:24.407Z,93.65
2023-03-15T10:08:58.753Z,93.55
2023-03-15T10:11:51.114Z,90.51
2023-03-15T10:14:28.462Z,91.08
2023-03-15T10:16:56.020Z,92.17
2023-03-15T10:19:52.498Z,93.02
2023-03-15T10:22:43.718Z,92.40
2023-03-15T10:25:24.127Z,93.57
2023-03-15T10:28:01.855Z,97.10
2023-03-15T10:30:33.399Z,89.98
2023-03-15T10:33:16.790Z,92.73
2023-03-15T10:35:44.868Z,92.18
2023-03-15T10:38:17.136Z,86.45
2023-03-15T10:40:53.801Z,86.42
2023-03-15T10:43:22.776Z,87.84
2023-03-15T10:46:14.329Z,89.69
2023-03-15T10:49:01.478Z,87.78
2023-03-15T10:51:34.908Z,86.88
2023-03-15T10:54:04.633Z,86.44
2023-03-15T10:56:38.151Z,89.29
2023-03-15T10:59:16.710Z,89.34
2023-03-15T11:01:48.573Z,90.07
2023-03-15T11:04:22.392Z,89.96
2023-03-15T11:07:01.082Z,91.80
2023-03-15T11:09:39.441Z,90.37
2023-03-15T11:12:10.347Z,88.90
2023-03-15T11:14:46.641Z,90.61
2023-03-15T11:17:21.408Z,92.49
2023-03-15T11:19:59.860Z,90.21
2023-03-15T11:22:28.176Z,93.09
2023-03-15T11:24:55.496Z,90.61
2023-03-15T11:27:24.462Z,87.25
2023-03-15T11:29:56.188Z,85.19
2023-03-15T11:32:27.191Z,87.63
2023-03-15T11:35:07.898Z,89.15
2023-03-15T11:37:45.118Z,87.29
2023-03-15T11:40:24.539Z,87.26
2023-03-15T11:43:05.272Z,85.25
2023-03-15T11:45:37.681Z,88.82
2023-03-15T11:48:40.831Z,86.94
2023-03-15T11:51:09.185Z,84.69
2023-03-15T11:53:50.606Z,85.31
2023-03-15T11:56:25.689Z,86.47
2023-03-15T11:59:15.944Z,90.60
2023-03-15T12:01:49.951Z,88.20
2023-03-15T12:04:34.121Z,86.98
2023-03-15T12:07:06.686Z,90.90
2023-03-15T12:09:37.618Z,84.55
2023-03-15T12:12:26.920Z,84.59
2023-03-15T12:15:20.262Z,87.40
2023-03-15T12:17:54.929Z,84.54
2023-03-15T12:20:39.200Z,87.35
2023-03-15T12:23:19.298Z,81.73
2023-03-15T12:26:00.280Z,84.35
2023-03-15T12:28:28.893Z,86.59
2023-03-15T12:31:01.892Z,86.12
2023-03-15T12:33:32.149Z,86.60
2023-03-15T12:36:30.832Z,84.37
2023-03-15T12:39:37.825Z,84.33
2023-03-15T12:42:06.654Z,85.25
2023-03-15T12:44:39.879Z,86.84
2023-03-15T12:47:10.689Z,84.43
2023-03-15T12:49:39.595Z,84.69
2023-03-15T12:52:16.860Z,79.25
2023-03-15T12:54:46.581Z,82.15
2023-03-15T12:57:20.011Z,79.59
2023-03-15T12:59:55.276Z,79.70
2023-03-15T13:02:42.153Z,82.37
2023-03-15T13:05:26.608Z,82.51
2023-03-15T13:08:19.888Z,83.63
2023-03-15T13:11:05.581Z,83.00
2023-03-15T13:14:03.482Z,80.62
2023-03-15T13:16:45.059Z,79.19
2023-03-15T13:19:23.442Z,80.80
2023-03-15T13:22:09.936Z,82.59
2023-03-15T13:24:38.204Z,83.02
2023-03-15T13:27:14.219Z,83.57
2023-03-15T13:29:42.842Z,81.15
2023-03-15T13:32:19.226Z,81.46
2023-03-15T13:34:48.201Z,80.74
2023-03-15T13:37:18.134Z,81.29
2023-03-15T13:40:05.609Z,81.88
2023-03-15T13:42:34.043Z,84.33
2023-03-15T13:45:12.688Z,81.34
2023-03-15T13:47:42.189Z,84.54
2023-03-15T13:50:16.428Z,78.28
2023-03-15T13:52:44.749Z,76.80
2023-03-15T13:55:15.518Z,77.81
2023-03-15T13:57:43.561Z,74.92
2023-03-15T14:00:17.561Z,80.23
2023-03-15T14:02:54.273Z,80.06
2023-03-15T14:05:27.720Z,78.06
2023-03-15T14:08:03.195Z,78.84
2023-03-15T14:10:36.786Z,79.49
2023-03-15T14:13:23.343Z,80.22
2023-03-15T14:15:57.853Z,75.93
2023-03-15T14:18:32.438Z,75.26
2023-03-15T14:21:06.389Z,75.65
2023-03-15T14:23:40.933Z,77.56
2023-03-15T14:26:19.864Z,77.07
2023-03-15T14:29:02.328Z,76.38
2023-03-15T14:31:34.829Z,76.69
2023-03-15T14:34:33.818Z,76.85
2023-03-15T14:37:05.840Z,77.38
2023-03-15T14:39:43.036Z,77.71
2023-03-15T14:42:12.569Z,77.19
2023-03-15T14:44:40.312Z,78.50
2023-03-15T14:47:16.814Z,80.02
2023-03-15T14:49:44.620Z,78.24
2023-03-15T14:52:13.387Z,78.89
2023-03-15T14:54:45.047Z,77.69
2023-03-15T14:57:13.607Z,76.63
2023-03-15T14:59:41.393Z,75.33
2023-03-15T15:02:18.377Z,76.56
2023-03-15T15:04:48.498Z,76.22
2023-03-15T15:07:18.801Z,77.41
2023-03-15T15:09:50.958Z,80.77
2023-03-15T15:12:19.534Z,79.49
2023-03-15T15:14:47.404Z,79.96
2023-03-15T15:17:15.869Z,80.32
2023-03-15T15:19:44.448Z,77.75
2023-03-15T15:22:14.065Z,76.75
2023-03-15T15:24:41.977Z,78.08
2023-03-15T15:27:11.440Z,80.53
2023-03-15T15:29:39.655Z,81.24
2023-03-15T15:32:08.239Z,82.17
2023-03-15T15:34:37.643Z,82.29
2023-03-15T15:37:06.180Z,83.90
2023-03-15T15:39:34.015Z,84.65
2023-03-15T15:42:02.714Z,85.50
2023-03-15T15:44:30.686Z,87.65
2023-03-15T15:47:01.289Z,85.74
2023-03-15T15:49:29.256Z,87.51
2023-03-15T15:51:57.915Z,88.25
2023-03-15T15:54:27.606Z,89.32
2023-03-15T15:56:59.814Z,89.07
2023-03-15T15:59:27.777Z,90.03
2023-03-15T16:02:00.995Z,91.53
2023-03-15T16:04:30.625Z,93.87
2023-03-15T16:07:02.005Z,94.03
2023-03-15T16:09:32.107Z,95.94
2023-03-15T16:12:00.469Z,96.21
2023-03-15T16:14:28.264Z,95.89
2023-03-15T16:16:56.194Z,96.83
2023-03-15T16:19:24.159Z,96.96
2023-03-15T16:21:54.608Z,98.17
2023-03-15T16:24:26.533Z,96.76
2023-03-15T16:27:01.109Z,97.54
2023-03-15T16:29:41.458Z,97.65
2023-03-15T16:32:24.442Z,98.40
2023-03-15T16:34:57.610Z,99.43
2023-03-15T16:37:30.204Z,98.99
2023-03-15T16:40:01.024Z,98.93
2023-03-15T16:42:29.639Z,99.72
2023-03-15T16:44:57.440Z,99.33
2023-03-15T16:47:25.757Z,98.88
2023-03-15T16:49:53.342Z,99.38
2023-03-15T16:52:21.891Z,100.00
2023-03-15T16:54:50.176Z,100.00
2023-03-15T16:57:22.182Z,99.98
2023-03-15T16:59:50.659Z,100.00
2023-03-15T17:02:28.009Z,100.00
2023-03-15T17:04:56.626Z,100.00
2023-03-15T17:07:32.196Z,100.00
2023-03-15T17:10:07.483Z,100.00
2023-03-15T17:12:36.497Z,100.00
2023-03-15T17:15:04.694Z,100.00
2023-03-15T17:17:34.214Z,100.00
2023-03-15T17:20:02.683Z,100.00
2023-03-15T17:22:30.933Z,100.00
2023-03-15T17:24:58.583Z,100.00
2023-03-15T17:27:33.880Z,100.00
2023-03-15T17:30:02.510Z,100.00
2023-03-15T17:32:31.449Z,100.00
2023-03-15T17:34:59.745Z,100.00
2023-03-15T17:37:30.873Z,100.00
2023-03-15T17:39:59.325Z,100.00
2023-03-15T17:42:27.623Z,100.00
2023-03-15T17:44:55.676Z,100.00
2023-03-15T17:47:23.956Z,100.00
2023-03-15T17:49:52.056Z,100.00
2023-03-15T17:52:21.076Z,100.00
2023-03-15T17:54:48.799Z,100.00
2023-03-15T17:57:17.139Z,100.00
2023-03-15T17:59:44.864Z,100.00
2023-03-15T18:02:15.713Z,100.00
2023-03-15T18:04:43.678Z,100.00
2023-03-15T18:07:12.106Z,100.00
2023-03-15T18:09:40.275Z,100.00
2023-03-15T18:12:13.199Z,100.00
2023-03-15T18:14:42.180Z,100.00
2023-03-15T18:17:10.780Z,100.00
2023-03-15T18:19:38.722Z,100.00
2023-03-15T18:22:07.212Z,100.00
2023-03-15T18:24:34.923Z,100.00
2023-03-15T18:27:03.626Z,100.00
2023-03-15T18:29:32.307Z,100.00
2023-03-15T18:32:01.043Z,100.00
2023-03-15T18:34:30.348Z,100.00
2023-03-15T18:36:58.500Z,100.00
2023-03-15T18:39:26.311Z,100.00
2023-03-15T18:41:54.951Z,100.00
2023-03-15T18:44:23.343Z,100.00
2023-03-15T18:46:51.426Z,100.00
2023-03-15T18:49:19.272Z,100.00
2023-03-15T18:51:47.671Z,100.00
2023-03-15T18:54:15.710Z,100.00
2023-03-15T18:56:44.177Z,100.00
2023-03-15T18:59:12.327Z,100.00
2023-03-15T19:01:42.612Z,100.00
2023-03-15T19:04:11.265Z,100.00
2023-03-15T19:06:39.997Z,100.00
2023-03-15T19:09:07.856Z,100.00
2023-03-15T19:11:42.178Z,100.00
2023-03-15T19:14:11.008Z,100.00
2023-03-15T19:16:39.449Z,100.00
2023-03-15T19:19:07.414Z,100.00
2023-03-15T19:21:36.109Z,100.00
2023-03-15T19:24:04.947Z,100.00
2023-03-15T19:26:33.513Z,100.00
2023-03-15T19:29:04.070Z,100.00
2023-03-15T19:31:33.145Z,100.00
2023-03-15T19:34:01.689Z,100.00
2023-03-15T19:36:30.272Z,100.00
2023-03-15T19:38:58.338Z,100.00
2023-03-15T19:41:26.383Z,100.00
2023-03-15T19:43:54.287Z,100.00
2023-03-15T19:46:22.580Z,100.00
2023-03-15T19:48:50.496Z,100.00
2023-03-15T19:51:18.917Z,100.00
2023-03-15T19:53:47.471Z,100.00
2023-03-15T19:56:15.754Z,100.00
2023-03-15T19:58:43.730Z,100.00
2023-03-15T20:01:12.557Z,100.00
2023-03-15T20:03:41.400Z,100.00
2023-03-15T20:06:15.114Z,100.00
2023-03-15T20:08:43.614Z,100.00
2023-03-15T20:11:20.274Z,100.00
2023-03-15T20:13:48.118Z,100.00
2023-03-15T20:16:16.676Z,100.00
2023-03-15T20:18:45.275Z,100.00
2023-03-15T20:21:15.103Z,100.00
2023-03-15T20:23:42.974Z,100.00
2023-03-15T20:26:13.943Z,100.00
2023-03-15T20:28:44.038Z,100.00
2023-03-15T20:31:15.981Z,100.00
2023-03-15T20:33:46.634Z,100.00
2023-03-15T20:36:15.279Z,100.00
2023-03-15T20:38:42.883Z,100.00
2023-03-15T20:41:14.142Z,100.00
2023-03-15T20:43:42.544Z,100.00
2023-03-15T20:46:12.519Z,100.00
2023-03-15T20:48:40.746Z,100.00
2023-03-15T20:51:09.434Z,100.00
2023-03-15T20:53:37.763Z,100.00
2023-03-15T20:56:06.998Z,100.00
2023-03-15T20:58:35.553Z,100.00
2023-03-15T21:01:03.578Z,100.00
2023-03-15T21:03:34.269Z,100.00
2023-03-15T21:06:04.474Z,100.00
2023-03-15T21:08:33.811Z,100.00
2023-03-15T21:11:02.855Z,100.00
2023-03-15T21:13:31.094Z,100.00
2023-03-15T21:16:00.836Z,100.00
2023-03-15T21:18:28.681Z,100.00
2023-03-15T21:20:59.464Z,100.00
2023-03-15T21:23:31.212Z,100.00
2023-03-15T21:26:07.783Z,100.00
2023-03-15T21:28:37.068Z,100.00
2023-03-15T21:31:06.821Z,100.00
2023-03-15T21:33:34.839Z,100.00
2023-03-15T21:36:03.841Z,100.00
2023-03-15T21:38:33.280Z,100.00
2023-03-15T21:41:01.890Z,100.00
2023-03-15T21:43:33.962Z,100.00
2023-03-15T21:46:08.208Z,100.00
2023-03-15T21:48:37.602Z,100.00
2023-03-15T21:51:07.468Z,100.00
2023-03-15T21:53:36.157Z,100.00
2023-03-15T21:56:05.664Z,100.00
2023-03-15T21:58:33.662Z,100.00
2023-03-15T22:01:08.180Z,100.00
2023-03-15T22:03:36.753Z,100.00
2023-03-15T22:06:05.118Z,100.00
2023-03-15T22:08:34.204Z,100.00
2023-03-15T22:11:02.329Z,100.00
2023-03-15T22:13:30.707Z,100.00
2023-03-15T22:15:59.463Z,100.00
2023-03-15T22:18:29.084Z,100.00
2023-03-15T22:20:57.314Z,100.00
2023-03-15T22:23:25.601Z,100.00
2023-03-15T22:25:54.567Z,100.00
2023-03-15T22:28:25.227Z,100.00
2023-03-15T22:30:53.919Z,100.00
2023-03-15T22:33:22.553Z,100.00
2023-03-15T22:35:57.991Z,100.00
2023-03-15T22:38:26.563Z,100.00
2023-03-15T22:41:09.257Z,100.00
2023-03-15T22:43:37.906Z,100.00
2023-03-15T22:46:06.693Z,100.00
2023-03-15T22:48:34.440Z,100.00
2023-03-15T22:51:12.878Z,100.00
2023-03-15T22:53:40.758Z,100.00
2023-03-15T22:56:09.178Z,100.00
2023-03-15T22:58:37.198Z,100.00
2023-03-15T23:01:05.928Z,100.00
2023-03-15T23:03:33.904Z,100.00
2023-03-15T23:06:02.348Z,100.00
2023-03-15T23:08:31.057Z,100.00
2023-03-15T23:10:59.211Z,100.00
2023-03-15T23:13:26.986Z,100.00
2023-03-15T23:15:55.449Z,100.00
2023-03-15T23:18:23.854Z,100.00
2023-03-15T23:20:51.888Z,100.00
2023-03-15T23:23:19.568Z,100.00
2023-03-15T23:25:48.226Z,100.00
2023-03-15T23:28:18.011Z,100.00
2023-03-15T23:30:46.870Z,100.00
2023-03-15T23:33:14.831Z,100.00
2023-03-15T23:35:43.160Z,100.00
2023-03-15T23:38:13.905Z,100.00
2023-03-15T23:40:42.359Z,100.00
2023-03-15T23:43:10.331Z,100.00
2023-03-15T23:45:39.148Z,100.00
2023-03-15T23:48:07.616Z,100.00
2023-03-15T23:50:38.222Z,100.00
2023-03-15T23:53:06.240Z,100.00
2023-03-15T23:55:34.727Z,100.00
2023-03-15T23:58:03.388Z,100.00
